Glenoma, WA

5:09 PM PST on November 23, 2014 (GMT -0800)
RAWS KOSMOS WA US | Change Station
CLOSE
Current Station
Personal Weather Station
Location: Glenoma, WA
Elevation: 2100 ft
Nearby Weather Stations
Active Advisory: Winter Storm Warning

Elev 2100 ft 46.52 °N, 122.19 °W | Updated 58 minutes ago

Rain
Rain
42.0 °F
Feels Like 42.0 °F
N
1.0
Wind Variable Wind from NE
Gusts 6.0 mph

Today
High -- | Low -- °F
--% Chance of Precip.
Yesterday
High -- | Low -- °F
Precip. -- in
7:21 AM 4:28 PM
Waxing Crescent, 3% visible
Pressure 30.23 in
Visibility 10.0 miles
Clouds Clear
Dew Point 42.0 °F
Humidity 100%
Rainfall 0.83 in
Snow Depth Not available.
UV 0 out of 12
Pollen .10 out of 12
Air Quality Not available.
Flu Activity Not available.
METAR KGRF 240058Z AUTO 17007KT 10SM CLR 10/06 A3021 RMK AO2 SLP235 T00950061 PWINO $

More Conditions Fewer Conditions

Pressure 30.23 in
Visibility 10.0 miles
Clouds Clear
Dew Point 42.0 °F
Humidity 100%
Rainfall 0.83 in
Snow Depth Not available.
UV 0 out of 12
Pollen .10 out of 12
Air Quality Not available.
Flu Activity Not available.
METAR KGRF 240058Z AUTO 17007KT 10SM CLR 10/06 A3021 RMK AO2 SLP235 T00950061 PWINO $

More Conditions Fewer Conditions

10-Day Weather Forecast

Almanac

Astronomy

Nov. 23, 2014 Rise Set
Actual Time
Civil Twilight
Nautical Twilight
Astronomical Twilight
Moon
Length of Visible Light
Length of Day
Tomorrow will be .
, % of the Moon is Illuminated

Today's Extremes

State Highs State Lows

Community

WunderPhotos

Upload Photos

1,773,232 photos uploaded!

WunderBlogs® & News

Nearby

Air Quality

  Air Quality AQ Index Pollutant
Not available.

Snow Depth

Station Depth Elevation

Earthquake Activity

City Distance Mag. Time & Date
Minimum magnitude displayed is 2.5.

Coastal Water Temperatures

Place Temperature

Nearby Weather Stations